De Pere, Wisconsin
Current Conditions -  °F | °C
As of 10:53 AM on Thursday 23 Oct 2014 (Local Time) from KGRB Reporting Station
Clear Clear  
Wind Chill: 51°   Ceiling: Unl
Heat Index: 51°   Visibility: 10mi
Dew Point: 40°   Wind: 10mph
Humidity: 66%   Direction: 190°S
Pressure: 30.13"   Gusts: NA
Location:  44.45°N, 88.08°W
Report Text: KGRB 231553Z 19009KT 10SM CLR 11/04 A3013 RMK AO2 SLP208 T01060044
Loading
Personal Weather Stations






























Interactive Weather Map
Tropical Storm Tracking
New forecast layout! Learn more

10-Day Weather Forecast

Advertisements
Track Severe Weather on mobile